sensor_id;sensor_type;location;lat;lon;timestamp;pressure;altitude;pressure_sealevel;temperature;humidity
53270;BME280;39159;45.634;9.420;2023-04-27T00:02:01;98806.06;;;11.47;61.57
53270;BME280;39159;45.634;9.420;2023-04-27T00:04:27;98812.66;;;11.37;62.25
53270;BME280;39159;45.634;9.420;2023-04-27T00:06:52;98814.56;;;11.28;63.36
53270;BME280;39159;45.634;9.420;2023-04-27T00:09:18;98813.88;;;11.22;63.24
53270;BME280;39159;45.634;9.420;2023-04-27T00:11:43;98818.03;;;11.19;64.11
53270;BME280;39159;45.634;9.420;2023-04-27T00:14:09;98815.94;;;11.16;64.17
53270;BME280;39159;45.634;9.420;2023-04-27T00:16:34;98833.28;;;11.12;65.07
53270;BME280;39159;45.634;9.420;2023-04-27T00:19:00;98813.28;;;11.03;65.24
53270;BME280;39159;45.634;9.420;2023-04-27T00:21:25;98813.69;;;11.10;66.15
53270;BME280;39159;45.634;9.420;2023-04-27T00:23:51;98816.72;;;11.08;65.63
53270;BME280;39159;45.634;9.420;2023-04-27T00:26:18;98809.19;;;11.14;65.83
53270;BME280;39159;45.634;9.420;2023-04-27T00:28:44;98815.81;;;11.22;65.74
53270;BME280;39159;45.634;9.420;2023-04-27T00:31:11;98813.25;;;11.25;64.88
53270;BME280;39159;45.634;9.420;2023-04-27T00:33:36;98808.28;;;11.27;64.88
53270;BME280;39159;45.634;9.420;2023-04-27T00:36:02;98808.59;;;11.26;66.17
53270;BME280;39159;45.634;9.420;2023-04-27T00:38:28;98804.56;;;11.23;66.16
53270;BME280;39159;45.634;9.420;2023-04-27T00:41:06;98804.09;;;11.21;66.58
53270;BME280;39159;45.634;9.420;2023-04-27T00:43:40;98806.47;;;11.14;67.96
53270;BME280;39159;45.634;9.420;2023-04-27T00:46:06;98801.56;;;11.02;69.46
53270;BME280;39159;45.634;9.420;2023-04-27T00:48:31;98806.38;;;10.96;69.40
53270;BME280;39159;45.634;9.420;2023-04-27T00:50:57;98798.41;;;10.77;70.32
53270;BME280;39159;45.634;9.420;2023-04-27T00:53:22;98794.25;;;10.80;69.88
53270;BME280;39159;45.634;9.420;2023-04-27T00:55:48;98795.19;;;10.75;70.16
53270;BME280;39159;45.634;9.420;2023-04-27T00:58:14;98794.81;;;10.68;69.95
53270;BME280;39159;45.634;9.420;2023-04-27T01:00:39;98800.72;;;10.62;70.19
53270;BME280;39159;45.634;9.420;2023-04-27T01:03:06;98804.03;;;10.50;70.22
53270;BME280;39159;45.634;9.420;2023-04-27T01:05:33;98795.94;;;10.45;70.08
53270;BME280;39159;45.634;9.420;2023-04-27T01:07:58;98795.28;;;10.39;70.06
53270;BME280;39159;45.634;9.420;2023-04-27T01:10:24;98798.16;;;10.34;70.03
53270;BME280;39159;45.634;9.420;2023-04-27T01:12:49;98792.78;;;10.29;70.41
53270;BME280;39159;45.634;9.420;2023-04-27T01:15:15;98794.50;;;10.25;70.49
53270;BME280;39159;45.634;9.420;2023-04-27T01:17:40;98787.44;;;10.24;70.81
53270;BME280;39159;45.634;9.420;2023-04-27T01:20:07;98798.97;;;10.21;70.62
53270;BME280;39159;45.634;9.420;2023-04-27T01:22:36;98800.38;;;10.18;70.89
53270;BME280;39159;45.634;9.420;2023-04-27T01:25:02;98797.97;;;10.16;71.12
53270;BME280;39159;45.634;9.420;2023-04-27T01:27:27;98789.47;;;10.18;71.01
53270;BME280;39159;45.634;9.420;2023-04-27T01:29:53;98783.06;;;10.14;71.13
53270;BME280;39159;45.634;9.420;2023-04-27T01:32:18;98792.94;;;10.10;71.82
53270;BME280;39159;45.634;9.420;2023-04-27T01:34:43;98795.69;;;10.10;73.07
53270;BME280;39159;45.634;9.420;2023-04-27T01:37:09;98800.34;;;10.09;73.83
53270;BME280;39159;45.634;9.420;2023-04-27T01:39:35;98796.09;;;10.03;73.53
53270;BME280;39159;45.634;9.420;2023-04-27T01:42:00;98801.56;;;10.03;75.34
53270;BME280;39159;45.634;9.420;2023-04-27T01:44:28;98803.50;;;10.03;75.50
53270;BME280;39159;45.634;9.420;2023-04-27T01:46:53;98807.44;;;9.96;78.33
53270;BME280;39159;45.634;9.420;2023-04-27T01:49:19;98814.63;;;9.92;78.28
53270;BME280;39159;45.634;9.420;2023-04-27T01:51:44;98810.59;;;9.90;77.82
53270;BME280;39159;45.634;9.420;2023-04-27T01:54:10;98816.13;;;9.85;79.67
53270;BME280;39159;45.634;9.420;2023-04-27T01:56:35;98814.03;;;9.82;79.89
53270;BME280;39159;45.634;9.420;2023-04-27T01:59:01;98821.09;;;9.83;81.01
53270;BME280;39159;45.634;9.420;2023-04-27T02:01:26;98823.41;;;9.75;78.65
53270;BME280;39159;45.634;9.420;2023-04-27T02:03:52;98827.69;;;9.68;78.88
53270;BME280;39159;45.634;9.420;2023-04-27T02:06:17;98826.97;;;9.62;78.67
53270;BME280;39159;45.634;9.420;2023-04-27T02:08:43;98829.69;;;9.62;77.69
53270;BME280;39159;45.634;9.420;2023-04-27T02:11:08;98830.31;;;9.59;77.57
53270;BME280;39159;45.634;9.420;2023-04-27T02:13:34;98832.25;;;9.59;80.50
53270;BME280;39159;45.634;9.420;2023-04-27T02:15:59;98828.22;;;9.56;80.94
53270;BME280;39159;45.634;9.420;2023-04-27T02:18:27;98830.72;;;9.52;79.90
53270;BME280;39159;45.634;9.420;2023-04-27T02:20:53;98832.44;;;9.48;79.60
53270;BME280;39159;45.634;9.420;2023-04-27T02:23:18;98836.88;;;9.44;79.88
53270;BME280;39159;45.634;9.420;2023-04-27T02:25:43;98835.44;;;9.47;78.84
53270;BME280;39159;45.634;9.420;2023-04-27T02:28:11;98841.63;;;9.52;81.11
53270;BME280;39159;45.634;9.420;2023-04-27T02:30:38;98839.09;;;9.56;78.49
53270;BME280;39159;45.634;9.420;2023-04-27T02:33:03;98842.31;;;9.58;77.44
53270;BME280;39159;45.634;9.420;2023-04-27T02:35:29;98844.56;;;9.56;77.03
53270;BME280;39159;45.634;9.420;2023-04-27T02:37:56;98841.81;;;9.56;76.95
53270;BME280;39159;45.634;9.420;2023-04-27T02:40:22;98842.72;;;9.65;80.54
53270;BME280;39159;45.634;9.420;2023-04-27T02:42:47;98843.81;;;9.64;76.88
53270;BME280;39159;45.634;9.420;2023-04-27T02:45:13;98841.72;;;9.61;76.17
53270;BME280;39159;45.634;9.420;2023-04-27T02:47:38;98848.88;;;9.57;77.15
53270;BME280;39159;45.634;9.420;2023-04-27T02:50:04;98853.53;;;9.57;77.95
53270;BME280;39159;45.634;9.420;2023-04-27T02:52:29;98858.97;;;9.57;77.85
53270;BME280;39159;45.634;9.420;2023-04-27T02:54:55;98854.94;;;9.54;78.23
53270;BME280;39159;45.634;9.420;2023-04-27T02:57:21;98848.16;;;9.51;78.16
53270;BME280;39159;45.634;9.420;2023-04-27T02:59:46;98852.41;;;9.58;80.60
53270;BME280;39159;45.634;9.420;2023-04-27T03:02:12;98856.25;;;9.57;79.79
53270;BME280;39159;45.634;9.420;2023-04-27T03:04:37;98857.66;;;9.54;79.44
53270;BME280;39159;45.634;9.420;2023-04-27T03:07:03;98844.84;;;9.54;81.71
53270;BME280;39159;45.634;9.420;2023-04-27T03:09:29;98848.28;;;9.46;79.59
53270;BME280;39159;45.634;9.420;2023-04-27T03:11:54;98850.31;;;9.41;80.54
53270;BME280;39159;45.634;9.420;2023-04-27T03:14:20;98851.50;;;9.34;82.57
53270;BME280;39159;45.634;9.420;2023-04-27T03:16:45;98852.59;;;9.33;83.22
53270;BME280;39159;45.634;9.420;2023-04-27T03:19:11;98851.09;;;9.27;86.09
53270;BME280;39159;45.634;9.420;2023-04-27T03:21:36;98852.81;;;9.23;84.43
53270;BME280;39159;45.634;9.420;2023-04-27T03:24:01;98855.22;;;9.25;85.57
53270;BME280;39159;45.634;9.420;2023-04-27T03:26:28;98855.03;;;9.21;84.72
53270;BME280;39159;45.634;9.420;2023-04-27T03:28:54;98855.63;;;9.18;83.60
53270;BME280;39159;45.634;9.420;2023-04-27T03:31:20;98858.38;;;9.18;83.06
53270;BME280;39159;45.634;9.420;2023-04-27T03:33:45;98848.34;;;9.13;82.57
53270;BME280;39159;45.634;9.420;2023-04-27T03:36:11;98858.44;;;9.13;83.76
53270;BME280;39159;45.634;9.420;2023-04-27T03:38:37;98854.81;;;9.04;83.47
53270;BME280;39159;45.634;9.420;2023-04-27T03:41:02;98860.25;;;9.04;84.34
53270;BME280;39159;45.634;9.420;2023-04-27T03:43:28;98857.00;;;9.02;83.85
53270;BME280;39159;45.634;9.420;2023-04-27T03:45:54;98863.75;;;9.04;83.83
53270;BME280;39159;45.634;9.420;2023-04-27T03:48:20;98852.47;;;9.11;83.22
53270;BME280;39159;45.634;9.420;2023-04-27T03:50:46;98854.13;;;9.12;83.79
53270;BME280;39159;45.634;9.420;2023-04-27T03:53:13;98863.75;;;9.04;86.12
53270;BME280;39159;45.634;9.420;2023-04-27T03:55:40;98871.34;;;9.07;85.98
53270;BME280;39159;45.634;9.420;2023-04-27T03:58:06;98868.63;;;9.07;87.02
53270;BME280;39159;45.634;9.420;2023-04-27T04:00:35;98875.03;;;8.98;84.96
53270;BME280;39159;45.634;9.420;2023-04-27T04:03:02;98876.75;;;8.93;86.24
53270;BME280;39159;45.634;9.420;2023-04-27T04:05:27;98875.25;;;9.01;87.11
53270;BME280;39159;45.634;9.420;2023-04-27T04:07:55;98885.75;;;9.08;84.28
53270;BME280;39159;45.634;9.420;2023-04-27T04:10:21;98886.56;;;9.08;85.56
53270;BME280;39159;45.634;9.420;2023-04-27T04:12:46;98885.25;;;9.06;85.08
53270;BME280;39159;45.634;9.420;2023-04-27T04:15:11;98891.81;;;9.05;85.05
53270;BME280;39159;45.634;9.420;2023-04-27T04:17:37;98894.44;;;9.10;84.15
53270;BME280;39159;45.634;9.420;2023-04-27T04:20:02;98891.91;;;9.13;84.01
53270;BME280;39159;45.634;9.420;2023-04-27T04:22:35;98896.88;;;9.11;83.36
53270;BME280;39159;45.634;9.420;2023-04-27T04:25:01;98900.19;;;9.22;92.93
53270;BME280;39159;45.634;9.420;2023-04-27T04:27:28;98908.81;;;9.29;88.92
53270;BME280;39159;45.634;9.420;2023-04-27T04:29:53;98913.34;;;9.34;84.78
53270;BME280;39159;45.634;9.420;2023-04-27T04:32:19;98920.19;;;9.31;86.22
53270;BME280;39159;45.634;9.420;2023-04-27T04:34:48;98921.81;;;9.32;83.14
53270;BME280;39159;45.634;9.420;2023-04-27T04:37:14;98923.34;;;9.39;84.59
53270;BME280;39159;45.634;9.420;2023-04-27T04:39:40;98932.81;;;9.41;84.60
53270;BME280;39159;45.634;9.420;2023-04-27T04:42:06;98932.03;;;9.41;84.08
53270;BME280;39159;45.634;9.420;2023-04-27T04:44:32;98928.97;;;9.42;84.74
53270;BME280;39159;45.634;9.420;2023-04-27T04:46:57;98940.47;;;9.39;83.66
53270;BME280;39159;45.634;9.420;2023-04-27T04:49:23;98945.03;;;9.44;84.22
53270;BME280;39159;45.634;9.420;2023-04-27T04:51:48;98944.09;;;9.34;85.19
53270;BME280;39159;45.634;9.420;2023-04-27T04:54:14;98948.94;;;9.38;86.24
53270;BME280;39159;45.634;9.420;2023-04-27T04:56:39;98950.47;;;9.44;84.62
53270;BME280;39159;45.634;9.420;2023-04-27T04:59:05;98951.50;;;9.48;86.11
53270;BME280;39159;45.634;9.420;2023-04-27T05:01:31;98959.78;;;9.57;84.92
53270;BME280;39159;45.634;9.420;2023-04-27T05:03:56;98958.66;;;9.58;84.36
53270;BME280;39159;45.634;9.420;2023-04-27T05:06:21;98962.13;;;9.63;84.55
53270;BME280;39159;45.634;9.420;2023-04-27T05:08:47;98957.47;;;9.78;84.42
53270;BME280;39159;45.634;9.420;2023-04-27T05:11:12;98961.22;;;9.82;84.59
53270;BME280;39159;45.634;9.420;2023-04-27T05:13:38;98967.66;;;9.86;83.02
53270;BME280;39159;45.634;9.420;2023-04-27T05:16:05;98972.44;;;9.94;84.21
53270;BME280;39159;45.634;9.420;2023-04-27T05:18:31;98977.75;;;9.99;80.63
53270;BME280;39159;45.634;9.420;2023-04-27T05:20:56;98977.66;;;10.04;80.87
53270;BME280;39159;45.634;9.420;2023-04-27T05:23:22;98981.19;;;9.91;80.00
53270;BME280;39159;45.634;9.420;2023-04-27T05:25:47;98976.06;;;9.89;80.18
53270;BME280;39159;45.634;9.420;2023-04-27T05:28:12;98988.97;;;9.84;81.10
53270;BME280;39159;45.634;9.420;2023-04-27T05:30:38;98987.78;;;9.90;81.89
53270;BME280;39159;45.634;9.420;2023-04-27T05:33:04;98977.06;;;9.93;81.86
53270;BME280;39159;45.634;9.420;2023-04-27T05:35:30;98975.84;;;10.00;82.38
53270;BME280;39159;45.634;9.420;2023-04-27T05:37:56;98982.19;;;10.09;82.01
53270;BME280;39159;45.634;9.420;2023-04-27T05:40:22;98992.91;;;10.19;81.72
53270;BME280;39159;45.634;9.420;2023-04-27T05:42:48;98988.34;;;10.28;81.08
53270;BME280;39159;45.634;9.420;2023-04-27T05:45:14;98988.97;;;10.39;81.23
53270;BME280;39159;45.634;9.420;2023-04-27T05:47:40;98989.25;;;10.51;81.67
53270;BME280;39159;45.634;9.420;2023-04-27T05:50:06;98994.88;;;10.69;79.56
53270;BME280;39159;45.634;9.420;2023-04-27T05:52:31;98989.06;;;10.84;79.39
53270;BME280;39159;45.634;9.420;2023-04-27T05:54:57;98986.28;;;10.98;78.57
53270;BME280;39159;45.634;9.420;2023-04-27T05:57:23;98993.78;;;11.15;77.76
53270;BME280;39159;45.634;9.420;2023-04-27T05:59:49;98987.66;;;11.32;76.69
53270;BME280;39159;45.634;9.420;2023-04-27T06:02:15;98993.53;;;11.48;75.35
53270;BME280;39159;45.634;9.420;2023-04-27T06:04:40;98993.78;;;11.69;74.40
53270;BME280;39159;45.634;9.420;2023-04-27T06:07:10;99008.25;;;11.92;72.46
53270;BME280;39159;45.634;9.420;2023-04-27T06:09:36;99007.38;;;12.22;72.43
53270;BME280;39159;45.634;9.420;2023-04-27T06:12:03;99007.16;;;12.50;64.95
53270;BME280;39159;45.634;9.420;2023-04-27T06:14:29;99007.19;;;12.68;63.29
53270;BME280;39159;45.634;9.420;2023-04-27T06:16:55;99011.22;;;12.88;63.18
53270;BME280;39159;45.634;9.420;2023-04-27T06:19:20;99012.03;;;13.05;60.79
53270;BME280;39159;45.634;9.420;2023-04-27T06:21:46;99006.19;;;13.24;56.28
53270;BME280;39159;45.634;9.420;2023-04-27T06:24:11;99015.22;;;13.42;55.50
53270;BME280;39159;45.634;9.420;2023-04-27T06:26:36;99015.50;;;13.58;56.33
53270;BME280;39159;45.634;9.420;2023-04-27T06:29:02;99019.03;;;13.76;55.22
53270;BME280;39159;45.634;9.420;2023-04-27T06:31:28;99020.59;;;13.95;55.64
53270;BME280;39159;45.634;9.420;2023-04-27T06:33:54;99020.88;;;14.02;52.82
53270;BME280;39159;45.634;9.420;2023-04-27T06:36:19;99020.81;;;14.19;52.74
53270;BME280;39159;45.634;9.420;2023-04-27T06:38:45;99026.22;;;14.37;52.75
53270;BME280;39159;45.634;9.420;2023-04-27T06:41:11;99021.56;;;14.58;52.10
53270;BME280;39159;45.634;9.420;2023-04-27T06:43:36;99037.88;;;14.63;50.63
53270;BME280;39159;45.634;9.420;2023-04-27T06:46:02;99027.50;;;14.69;50.41
53270;BME280;39159;45.634;9.420;2023-04-27T06:48:28;99031.03;;;14.69;51.71
53270;BME280;39159;45.634;9.420;2023-04-27T06:50:54;99028.38;;;14.82;51.18
53270;BME280;39159;45.634;9.420;2023-04-27T06:53:19;99036.72;;;14.94;51.58
53270;BME280;39159;45.634;9.420;2023-04-27T06:55:45;99043.41;;;15.05;50.70
53270;BME280;39159;45.634;9.420;2023-04-27T06:58:10;99042.72;;;15.08;49.43
53270;BME280;39159;45.634;9.420;2023-04-27T07:00:36;99039.03;;;15.04;49.06
53270;BME280;39159;45.634;9.420;2023-04-27T07:03:01;99053.19;;;15.15;48.85
53270;BME280;39159;45.634;9.420;2023-04-27T07:05:27;99045.81;;;15.28;49.61
53270;BME280;39159;45.634;9.420;2023-04-27T07:07:52;99049.22;;;15.46;48.03
53270;BME280;39159;45.634;9.420;2023-04-27T07:10:18;99042.94;;;15.58;47.40
53270;BME280;39159;45.634;9.420;2023-04-27T07:12:43;99043.47;;;15.72;46.47
53270;BME280;39159;45.634;9.420;2023-04-27T07:15:09;99049.50;;;15.65;47.07
53270;BME280;39159;45.634;9.420;2023-04-27T07:17:34;99056.13;;;15.64;47.08
53270;BME280;39159;45.634;9.420;2023-04-27T07:20:00;99056.22;;;15.77;45.17
53270;BME280;39159;45.634;9.420;2023-04-27T07:22:28;99058.97;;;15.77;45.59
53270;BME280;39159;45.634;9.420;2023-04-27T07:24:53;99058.31;;;15.59;44.60
53270;BME280;39159;45.634;9.420;2023-04-27T07:27:19;99053.63;;;16.05;44.45
53270;BME280;39159;45.634;9.420;2023-04-27T07:29:44;99057.75;;;15.99;42.45
53270;BME280;39159;45.634;9.420;2023-04-27T07:32:10;99055.22;;;15.93;44.58
53270;BME280;39159;45.634;9.420;2023-04-27T07:34:35;99047.41;;;15.95;44.00
53270;BME280;39159;45.634;9.420;2023-04-27T07:37:01;99051.81;;;16.21;43.98
53270;BME280;39159;45.634;9.420;2023-04-27T07:39:26;99052.28;;;16.35;44.14
53270;BME280;39159;45.634;9.420;2023-04-27T07:41:53;99051.13;;;16.61;42.46
53270;BME280;39159;45.634;9.420;2023-04-27T07:44:19;99057.44;;;16.49;42.85
53270;BME280;39159;45.634;9.420;2023-04-27T07:46:45;99059.28;;;16.57;43.87
53270;BME280;39159;45.634;9.420;2023-04-27T07:49:14;99059.84;;;16.51;43.27
53270;BME280;39159;45.634;9.420;2023-04-27T07:51:40;99055.69;;;16.69;44.05
53270;BME280;39159;45.634;9.420;2023-04-27T07:54:07;99065.13;;;16.93;42.85
53270;BME280;39159;45.634;9.420;2023-04-27T07:56:32;99063.38;;;17.13;42.70
53270;BME280;39159;45.634;9.420;2023-04-27T07:58:58;99059.56;;;17.46;41.98
53270;BME280;39159;45.634;9.420;2023-04-27T08:01:23;99069.44;;;17.75;42.63
53270;BME280;39159;45.634;9.420;2023-04-27T08:03:49;99066.91;;;17.82;41.31
53270;BME280;39159;45.634;9.420;2023-04-27T08:06:14;99065.69;;;17.95;41.53
53270;BME280;39159;45.634;9.420;2023-04-27T08:08:40;99063.44;;;17.57;40.64
53270;BME280;39159;45.634;9.420;2023-04-27T08:11:10;99067.56;;;17.63;40.84
53270;BME280;39159;45.634;9.420;2023-04-27T08:13:35;99070.69;;;17.49;40.95
53270;BME280;39159;45.634;9.420;2023-04-27T08:16:01;99065.19;;;17.49;41.23
53270;BME280;39159;45.634;9.420;2023-04-27T08:18:27;99078.63;;;17.79;41.63
53270;BME280;39159;45.634;9.420;2023-04-27T08:20:53;99074.06;;;17.71;40.56
53270;BME280;39159;45.634;9.420;2023-04-27T08:23:20;99072.28;;;18.07;40.54
53270;BME280;39159;45.634;9.420;2023-04-27T08:25:46;99078.53;;;17.75;39.95
53270;BME280;39159;45.634;9.420;2023-04-27T08:28:13;99068.16;;;18.00;39.94
53270;BME280;39159;45.634;9.420;2023-04-27T08:30:40;99073.97;;;18.27;40.76
53270;BME280;39159;45.634;9.420;2023-04-27T08:33:06;99060.31;;;18.66;41.12
53270;BME280;39159;45.634;9.420;2023-04-27T08:35:33;99065.22;;;18.73;40.31
53270;BME280;39159;45.634;9.420;2023-04-27T08:37:58;99054.22;;;18.41;40.95
53270;BME280;39159;45.634;9.420;2023-04-27T08:40:24;99056.59;;;18.27;39.97
53270;BME280;39159;45.634;9.420;2023-04-27T08:42:55;99049.72;;;18.68;39.59
53270;BME280;39159;45.634;9.420;2023-04-27T08:45:22;99056.81;;;18.85;38.66
53270;BME280;39159;45.634;9.420;2023-04-27T08:47:48;99051.84;;;18.75;38.59
53270;BME280;39159;45.634;9.420;2023-04-27T08:50:14;99049.47;;;18.41;38.66
53270;BME280;39159;45.634;9.420;2023-04-27T08:52:39;99052.09;;;18.70;38.20
53270;BME280;39159;45.634;9.420;2023-04-27T08:55:06;99055.72;;;19.05;37.95
53270;BME280;39159;45.634;9.420;2023-04-27T08:57:32;99043.69;;;19.17;38.85
53270;BME280;39159;45.634;9.420;2023-04-27T08:59:58;99042.97;;;19.01;37.71
53270;BME280;39159;45.634;9.420;2023-04-27T09:02:25;99042.41;;;18.60;38.90
53270;BME280;39159;45.634;9.420;2023-04-27T09:04:54;99040.97;;;18.82;38.94
53270;BME280;39159;45.634;9.420;2023-04-27T09:07:20;99049.28;;;19.01;39.09
53270;BME280;39159;45.634;9.420;2023-04-27T09:09:45;99041.84;;;18.86;37.66
53270;BME280;39159;45.634;9.420;2023-04-27T09:12:20;99051.38;;;18.89;38.40
53270;BME280;39159;45.634;9.420;2023-04-27T09:15:00;99048.50;;;19.20;37.94
53270;BME280;39159;45.634;9.420;2023-04-27T09:17:29;99056.28;;;19.15;38.30
53270;BME280;39159;45.634;9.420;2023-04-27T09:20:07;99055.78;;;19.48;37.88
53270;BME280;39159;45.634;9.420;2023-04-27T09:22:44;99056.94;;;19.47;37.80
53270;BME280;39159;45.634;9.420;2023-04-27T09:25:21;99042.97;;;19.40;37.53
53270;BME280;39159;45.634;9.420;2023-04-27T09:27:47;99049.94;;;19.34;37.47
53270;BME280;39159;45.634;9.420;2023-04-27T09:30:13;99050.78;;;19.34;37.90
53270;BME280;39159;45.634;9.420;2023-04-27T09:32:39;99055.28;;;19.42;36.87
53270;BME280;39159;45.634;9.420;2023-04-27T09:35:20;99052.28;;;19.12;37.48
53270;BME280;39159;45.634;9.420;2023-04-27T09:37:47;99055.75;;;18.74;36.53
53270;BME280;39159;45.634;9.420;2023-04-27T09:40:12;99050.13;;;19.21;36.40
53270;BME280;39159;45.634;9.420;2023-04-27T09:42:38;99059.78;;;19.31;36.34
53270;BME280;39159;45.634;9.420;2023-04-27T09:45:05;99046.31;;;19.30;37.11
53270;BME280;39159;45.634;9.420;2023-04-27T09:47:32;99043.09;;;19.47;37.30
53270;BME280;39159;45.634;9.420;2023-04-27T09:49:59;99044.56;;;19.80;36.70
53270;BME280;39159;45.634;9.420;2023-04-27T09:52:25;99046.41;;;19.95;36.83
53270;BME280;39159;45.634;9.420;2023-04-27T09:54:53;99051.25;;;19.20;36.97
53270;BME280;39159;45.634;9.420;2023-04-27T09:57:39;99051.97;;;19.56;37.62
53270;BME280;39159;45.634;9.420;2023-04-27T10:08:29;99045.28;;;19.38;37.48
53270;BME280;39159;45.634;9.420;2023-04-27T10:10:54;99039.91;;;19.06;37.50
53270;BME280;39159;45.634;9.420;2023-04-27T10:13:24;99036.69;;;19.62;39.54
53270;BME280;39159;45.634;9.420;2023-04-27T10:15:50;99032.22;;;19.97;37.84
53270;BME280;39159;45.634;9.420;2023-04-27T10:18:29;99030.91;;;20.14;37.52
53270;BME280;39159;45.634;9.420;2023-04-27T10:20:55;99026.91;;;20.11;36.70
53270;BME280;39159;45.634;9.420;2023-04-27T10:23:24;99030.19;;;20.17;38.50
53270;BME280;39159;45.634;9.420;2023-04-27T10:25:51;99035.47;;;19.40;38.68
53270;BME280;39159;45.634;9.420;2023-04-27T10:28:17;99033.50;;;19.41;39.03
53270;BME280;39159;45.634;9.420;2023-04-27T10:30:45;99029.16;;;19.82;39.21
53270;BME280;39159;45.634;9.420;2023-04-27T10:33:15;99031.59;;;19.84;38.29
53270;BME280;39159;45.634;9.420;2023-04-27T10:35:54;99020.06;;;20.05;38.74
53270;BME280;39159;45.634;9.420;2023-04-27T10:38:25;99023.34;;;20.11;38.49
53270;BME280;39159;45.634;9.420;2023-04-27T10:40:59;99027.19;;;20.29;38.71
53270;BME280;39159;45.634;9.420;2023-04-27T10:43:30;99018.19;;;20.36;38.44
53270;BME280;39159;45.634;9.420;2023-04-27T10:46:13;99022.41;;;20.26;37.14
53270;BME280;39159;45.634;9.420;2023-04-27T10:48:42;99008.50;;;19.99;39.10
53270;BME280;39159;45.634;9.420;2023-04-27T10:51:08;99011.47;;;20.10;37.98
53270;BME280;39159;45.634;9.420;2023-04-27T10:53:35;99006.84;;;19.95;37.67
53270;BME280;39159;45.634;9.420;2023-04-27T10:56:00;99013.41;;;19.86;40.31
53270;BME280;39159;45.634;9.420;2023-04-27T10:58:26;99012.69;;;20.13;39.24
53270;BME280;39159;45.634;9.420;2023-04-27T11:00:51;99013.28;;;20.02;38.29
53270;BME280;39159;45.634;9.420;2023-04-27T11:03:22;99015.75;;;20.07;38.20
53270;BME280;39159;45.634;9.420;2023-04-27T11:05:58;99018.03;;;20.25;38.21
53270;BME280;39159;45.634;9.420;2023-04-27T11:08:24;99018.03;;;20.52;38.94
53270;BME280;39159;45.634;9.420;2023-04-27T11:10:50;99018.13;;;20.05;37.99
53270;BME280;39159;45.634;9.420;2023-04-27T11:13:21;99020.53;;;20.34;37.62
53270;BME280;39159;45.634;9.420;2023-04-27T11:15:47;99008.84;;;20.21;38.12
53270;BME280;39159;45.634;9.420;2023-04-27T11:18:14;99009.50;;;20.60;37.41
53270;BME280;39159;45.634;9.420;2023-04-27T11:20:41;99013.69;;;20.77;38.96
53270;BME280;39159;45.634;9.420;2023-04-27T11:23:07;99007.00;;;20.55;39.15
53270;BME280;39159;45.634;9.420;2023-04-27T11:25:36;99010.50;;;21.05;38.48
53270;BME280;39159;45.634;9.420;2023-04-27T11:28:01;99008.25;;;21.15;39.14
53270;BME280;39159;45.634;9.420;2023-04-27T11:30:28;99000.75;;;21.19;37.97
53270;BME280;39159;45.634;9.420;2023-04-27T11:32:54;99005.34;;;21.04;38.15
53270;BME280;39159;45.634;9.420;2023-04-27T11:35:31;99017.09;;;21.24;37.91
53270;BME280;39159;45.634;9.420;2023-04-27T11:37:57;99010.69;;;20.89;38.79
53270;BME280;39159;45.634;9.420;2023-04-27T11:40:23;99013.19;;;20.98;38.28
53270;BME280;39159;45.634;9.420;2023-04-27T11:42:58;99009.13;;;21.22;37.61
53270;BME280;39159;45.634;9.420;2023-04-27T11:45:25;99011.44;;;20.86;37.97
53270;BME280;39159;45.634;9.420;2023-04-27T11:47:57;99009.78;;;21.12;37.68
53270;BME280;39159;45.634;9.420;2023-04-27T11:50:23;98997.09;;;21.41;37.25
53270;BME280;39159;45.634;9.420;2023-04-27T11:52:50;98994.09;;;21.57;36.75
53270;BME280;39159;45.634;9.420;2023-04-27T11:55:19;98996.41;;;20.61;37.88
53270;BME280;39159;45.634;9.420;2023-04-27T11:57:45;98999.56;;;20.86;36.74
53270;BME280;39159;45.634;9.420;2023-04-27T12:00:10;98997.44;;;21.06;35.29
53270;BME280;39159;45.634;9.420;2023-04-27T12:02:39;98994.47;;;21.25;37.01
53270;BME280;39159;45.634;9.420;2023-04-27T12:05:06;98992.88;;;21.55;36.33
53270;BME280;39159;45.634;9.420;2023-04-27T12:07:32;98994.88;;;21.99;34.91
53270;BME280;39159;45.634;9.420;2023-04-27T12:09:58;98996.91;;;22.02;34.46
53270;BME280;39159;45.634;9.420;2023-04-27T12:12:24;98991.28;;;21.94;35.65
53270;BME280;39159;45.634;9.420;2023-04-27T12:14:50;98994.81;;;21.91;36.26
53270;BME280;39159;45.634;9.420;2023-04-27T12:17:16;98979.16;;;21.39;37.04
53270;BME280;39159;45.634;9.420;2023-04-27T12:19:42;98978.22;;;21.24;36.26
53270;BME280;39159;45.634;9.420;2023-04-27T12:22:08;98981.31;;;20.85;37.80
53270;BME280;39159;45.634;9.420;2023-04-27T12:24:33;98972.13;;;21.11;38.37
53270;BME280;39159;45.634;9.420;2023-04-27T12:26:59;98979.00;;;20.90;36.85
53270;BME280;39159;45.634;9.420;2023-04-27T12:29:25;98978.38;;;20.47;37.45
53270;BME280;39159;45.634;9.420;2023-04-27T12:31:51;98979.06;;;20.64;38.33
53270;BME280;39159;45.634;9.420;2023-04-27T12:34:17;98972.47;;;20.49;39.03
53270;BME280;39159;45.634;9.420;2023-04-27T12:36:43;98964.84;;;20.69;38.33
53270;BME280;39159;45.634;9.420;2023-04-27T12:39:14;98964.94;;;20.76;38.09
53270;BME280;39159;45.634;9.420;2023-04-27T12:41:42;98968.66;;;20.87;36.91
53270;BME280;39159;45.634;9.420;2023-04-27T12:44:07;98952.34;;;20.56;38.94
53270;BME280;39159;45.634;9.420;2023-04-27T12:46:33;98965.44;;;20.28;39.46
53270;BME280;39159;45.634;9.420;2023-04-27T12:48:58;98957.06;;;20.25;39.53
53270;BME280;39159;45.634;9.420;2023-04-27T12:51:24;98947.88;;;20.21;40.54
53270;BME280;39159;45.634;9.420;2023-04-27T12:53:52;98949.84;;;20.47;40.21
53270;BME280;39159;45.634;9.420;2023-04-27T12:56:17;98951.88;;;20.77;38.86
53270;BME280;39159;45.634;9.420;2023-04-27T12:58:43;98950.91;;;21.26;39.69
53270;BME280;39159;45.634;9.420;2023-04-27T13:01:09;98961.09;;;20.84;39.53
53270;BME280;39159;45.634;9.420;2023-04-27T13:03:43;98958.16;;;20.70;38.96
53270;BME280;39159;45.634;9.420;2023-04-27T13:06:08;98947.88;;;20.74;39.95
53270;BME280;39159;45.634;9.420;2023-04-27T13:08:36;98950.19;;;20.99;39.39